METAR AND TAF INFORMATION
METAR FOR TFFR
ADDS - METARS form results

(0747 UTC 11 December 2018)
Data provider http://aviationweather.gov/metar/data/
 
METAR text: TFFR 110730Z AUTO 11003KT CAVOK 21/20 Q1018
Conditions at: TFFR (LE RAIZET , GP) observed 0730 UTC 11 December 2018
Temperature: 21.0°C (70°F)
Dewpoint: 20.0°C (68°F) [RH = 94%]
Pressure (altimeter): 30.06 inches Hg (1018.0 mb)
Winds: from the ESE (110 degrees) at 3 MPH (3 knots; 1.5 m/s)
Visibility: 6 or more miles (10+ km)
Ceiling: ceiling and visibility are OK
Clouds: unknown
Weather: no significant weather observed at this time

METAR text: TFFR 110700Z AUTO 10003KT 9999 FEW032 22/19 Q1018
Conditions at: TFFR (LE RAIZET , GP) observed 0700 UTC 11 December 2018
Temperature: 22.0°C (72°F)
Dewpoint: 19.0°C (66°F) [RH = 83%]
Pressure (altimeter): 30.06 inches Hg (1018.0 mb)
Winds: from the E (100 degrees) at 3 MPH (3 knots; 1.5 m/s)
Visibility: 6 or more miles (10+ km)
Ceiling: at least 12,000 feet AGL
Clouds: few clouds at 3200 feet AGL
Weather: no significant weather observed at this time

 AIRPORT MAP

 RUNWAY INFORMATION
Runway 12 Runway length 11499 ft Runway width 148 ft
Runway elevation 5 ft Runway displaced threshold 1312 ft Runway heading 101
Runway 30 Runway length 11499 ft Runway width 148 ft
Runway elevation 32 ft Runway displaced threshold 820 ft Runway heading 281

 AIRPORT FREQUENCIES
Type APP Name RAIZET APP Frequency 121.3 MHZ
Type ATIS Name ATIS Frequency 127.6 MHZ
Type GND Name GND Frequency 121.85 MHZ
Type TWR Name RAIZET TWR Frequency 118.4 MHZ

 AIRPORT NEAR NAVIGATION AIDS
Type VOR-DME Name Pointe A Pitre Frequency 112900 KHZ
Type NDB Name Pointe A Pitre Frequency 385 KHZ



Powered by Virtual Airlines Manager [v2.6.2]